Time;durP1;ratioP1;P1;durP2;ratioP2;P2;SDS_P1;SDS_P2;PMS_P1;PMS_P2;Temp;Humidity;BMP_temperature;BMP_pressure;BME280_temperature;BME280_humidity;BME280_pressure;Samples;Min_cycle;Max_cycle;Signal;HPM_P1;HPM_P2
2023/06/16 00:00:43;;;;;;;;;;;;;;;17.35;47.76;101670.34;5124088;29;20296;-72
2023/06/16 00:03:15;;;;;;;;;;;;;;;17.29;47.58;101673.16;5124110;29;19915;-72
2023/06/16 00:05:47;;;;;;;;;;;;;;;17.23;47.99;101668.06;5123979;29;20019;-72
2023/06/16 00:08:19;;;;;;;;;;;;;;;17.17;48.22;101660.31;5124858;29;20012;-72
2023/06/16 00:10:50;;;;;;;;;;;;;;;17.11;48.47;101656.94;5124034;29;19923;-72
2023/06/16 00:13:21;;;;;;;;;;;;;;;17.05;48.47;101666.75;5123944;29;19919;-72
2023/06/16 00:15:52;;;;;;;;;;;;;;;16.97;48.81;101659.06;5123767;29;19923;-72
2023/06/16 00:18:25;;;;;;;;;;;;;;;16.92;48.92;101659.19;5123917;29;20009;-72
2023/06/16 00:20:57;;;;;;;;;;;;;;;16.88;49.29;101665.41;5124149;29;19922;-72
2023/06/16 00:23:29;;;;;;;;;;;;;;;16.85;49.48;101664.59;5123748;29;20011;-72
2023/06/16 00:26:00;;;;;;;;;;;;;;;16.78;49.75;101664.75;5123780;29;20009;-72
2023/06/16 00:28:31;;;;;;;;;;;;;;;16.71;49.88;101664.94;5123433;29;20362;-72
2023/06/16 00:31:02;;;;;;;;;;;;;;;16.64;50.54;101666.00;5122740;29;20385;-73
2023/06/16 00:33:34;;;;;;;;;;;;;;;16.58;51.13;101661.72;5123549;29;19922;-72
2023/06/16 00:36:05;;;;;;;;;;;;;;;16.52;50.52;101664.53;5122544;29;20013;-72
2023/06/16 00:38:36;;;;;;;;;;;;;;;16.45;50.92;101666.41;5123436;29;19915;-72
2023/06/16 00:41:08;;;;;;;;;;;;;;;16.38;50.97;101668.34;5123738;29;19947;-72
2023/06/16 00:43:39;;;;;;;;;;;;;;;16.31;51.02;101660.59;5123423;29;20328;-72
2023/06/16 00:46:13;;;;;;;;;;;;;;;16.28;51.17;101664.19;5123344;29;19922;-72
2023/06/16 00:48:44;;;;;;;;;;;;;;;16.27;51.33;101662.44;5123017;29;19922;-72
2023/06/16 00:51:16;;;;;;;;;;;;;;;16.24;51.43;101665.16;5123802;29;19919;-72
2023/06/16 00:53:48;;;;;;;;;;;;;;;16.23;51.65;101660.81;5123172;29;19914;-72
2023/06/16 00:56:21;;;;;;;;;;;;;;;16.20;51.78;101660.88;5122457;29;20334;-72
2023/06/16 00:58:53;;;;;;;;;;;;;;;16.14;51.84;101666.25;5123296;29;20355;-71
2023/06/16 01:01:26;;;;;;;;;;;;;;;16.09;52.17;101662.88;5123383;29;19919;-72
2023/06/16 01:03:57;;;;;;;;;;;;;;;16.05;52.28;101651.53;5123047;29;20377;-72
2023/06/16 01:06:43;;;;;;;;;;;;;;;16.00;52.36;101656.91;5122661;29;19942;-72
2023/06/16 01:09:33;;;;;;;;;;;;;;;15.93;52.53;101652.66;5122534;29;20347;-72
2023/06/16 01:12:07;;;;;;;;;;;;;;;15.87;52.62;101644.91;5123152;29;19969;-72
2023/06/16 01:14:57;;;;;;;;;;;;;;;15.82;52.92;101645.00;5122828;29;19970;-72
2023/06/16 01:17:29;;;;;;;;;;;;;;;15.76;53.23;101645.16;5123102;29;19919;-72
2023/06/16 01:20:06;;;;;;;;;;;;;;;15.71;53.33;101640.84;5122640;29;19919;-71
2023/06/16 01:22:56;;;;;;;;;;;;;;;15.65;53.70;101637.44;5122224;29;20375;-72
2023/06/16 01:25:29;;;;;;;;;;;;;;;15.59;53.56;101640.19;5122668;29;19915;-72
2023/06/16 01:28:03;;;;;;;;;;;;;;;15.57;53.36;101641.09;5123127;29;19915;-72
2023/06/16 01:30:35;;;;;;;;;;;;;;;15.51;53.56;101650.00;5123430;29;19915;-72
2023/06/16 01:33:06;;;;;;;;;;;;;;;15.47;53.50;101650.94;5122781;29;19926;-72
2023/06/16 01:35:38;;;;;;;;;;;;;;;15.44;53.70;101646.63;5122477;29;19915;-72
2023/06/16 01:38:11;;;;;;;;;;;;;;;15.37;53.83;101641.50;5122313;29;20374;-72
2023/06/16 01:40:42;;;;;;;;;;;;;;;15.33;54.04;101643.34;5122353;29;19915;-73
2023/06/16 01:43:14;;;;;;;;;;;;;;;15.27;54.12;101643.44;5122085;29;19921;-73
2023/06/16 01:45:46;;;;;;;;;;;;;;;15.23;54.38;101640.03;5122035;29;20003;-72
2023/06/16 01:48:19;;;;;;;;;;;;;;;15.19;54.40;101634.84;5121670;29;20359;-72
2023/06/16 01:50:50;;;;;;;;;;;;;;;15.13;54.84;101633.19;5122075;29;20009;-72
2023/06/16 01:53:22;;;;;;;;;;;;;;;15.08;54.64;101629.78;5121753;29;20006;-73
2023/06/16 01:55:53;;;;;;;;;;;;;;;15.04;55.05;101642.09;5121742;29;19979;-73
2023/06/16 01:58:25;;;;;;;;;;;;;;;15.01;55.03;101638.69;5121989;29;19919;-72
2023/06/16 02:00:59;;;;;;;;;;;;;;;14.97;54.70;101632.59;5122095;29;20295;-72
2023/06/16 02:03:35;;;;;;;;;;;;;;;14.92;54.84;101637.94;5122279;29;19970;-72
2023/06/16 02:06:27;;;;;;;;;;;;;;;14.88;54.96;101638.88;5120838;29;19921;-73
2023/06/16 02:09:02;;;;;;;;;;;;;;;14.84;55.08;101641.56;5122350;29;19915;-72
2023/06/16 02:11:34;;;;;;;;;;;;;;;14.81;55.17;101634.63;5121807;29;19915;-72
2023/06/16 02:14:05;;;;;;;;;;;;;;;14.79;55.51;101646.03;5122294;29;19915;-73
2023/06/16 02:16:42;;;;;;;;;;;;;;;14.71;55.63;101639.16;5120223;29;20014;-72
2023/06/16 02:19:14;;;;;;;;;;;;;;;14.66;55.57;101640.97;5121855;29;20271;-73
2023/06/16 02:21:45;;;;;;;;;;;;;;;14.62;55.65;101639.31;5121947;29;19919;-73
2023/06/16 02:24:17;;;;;;;;;;;;;;;14.59;56.23;101641.97;5121856;29;19926;-72
2023/06/16 02:26:48;;;;;;;;;;;;;;;14.55;56.64;101642.88;5121807;29;19922;-72
2023/06/16 02:29:20;;;;;;;;;;;;;;;14.50;56.54;101640.31;5122080;29;19918;-72
2023/06/16 02:31:51;;;;;;;;;;;;;;;14.44;56.38;101645.69;5121502;29;19971;-73
2023/06/16 02:34:23;;;;;;;;;;;;;;;14.40;56.93;101647.47;5121495;29;19919;-72
2023/06/16 02:36:54;;;;;;;;;;;;;;;14.33;56.68;101648.47;5121497;29;19919;-73
2023/06/16 02:39:25;;;;;;;;;;;;;;;14.30;57.14;101650.28;5120342;29;20363;-72
2023/06/16 02:41:57;;;;;;;;;;;;;;;14.26;56.68;101651.19;5120932;29;19938;-72
2023/06/16 02:44:28;;;;;;;;;;;;;;;14.23;57.45;101645.09;5121363;29;20284;-72
2023/06/16 02:47:01;;;;;;;;;;;;;;;14.18;56.68;101646.94;5121219;29;19926;-73
2023/06/16 02:49:32;;;;;;;;;;;;;;;14.14;56.99;101642.59;5121315;29;20006;-72
2023/06/16 02:52:04;;;;;;;;;;;;;;;14.13;56.69;101651.34;5121275;29;20014;-72
2023/06/16 02:54:35;;;;;;;;;;;;;;;14.10;56.78;101642.66;5120715;29;19923;-73
2023/06/16 02:57:07;;;;;;;;;;;;;;;14.07;56.94;101643.59;5120898;29;19915;-72
2023/06/16 02:59:38;;;;;;;;;;;;;;;14.04;56.99;101639.25;5120982;29;19915;-72
2023/06/16 03:02:10;;;;;;;;;;;;;;;13.98;56.97;101639.31;5120913;29;20062;-72
2023/06/16 03:04:41;;;;;;;;;;;;;;;13.96;57.12;101640.22;5121438;29;19915;-73
2023/06/16 03:07:12;;;;;;;;;;;;;;;13.91;57.33;101642.94;5120438;29;19966;-72
2023/06/16 03:09:45;;;;;;;;;;;;;;;13.89;57.51;101638.59;5119990;29;19937;-72
2023/06/16 03:12:16;;;;;;;;;;;;;;;13.85;57.31;101646.47;5120791;29;19923;-73
2023/06/16 03:14:47;;;;;;;;;;;;;;;13.80;58.19;101645.69;5120931;29;20302;-71
2023/06/16 03:17:21;;;;;;;;;;;;;;;13.74;57.71;101643.13;5120930;29;20381;-72
2023/06/16 03:19:52;;;;;;;;;;;;;;;13.73;58.13;101646.63;5120731;29;19915;-72
2023/06/16 03:22:24;;;;;;;;;;;;;;;13.67;58.07;101644.09;5121028;29;19926;-73
2023/06/16 03:25:02;;;;;;;;;;;;;;;13.61;58.77;101645.03;5103906;29;19966;-72
2023/06/16 03:27:33;;;;;;;;;;;;;;;13.61;58.08;101644.16;5120896;29;19915;-74
2023/06/16 03:30:05;;;;;;;;;;;;;;;13.58;58.27;101650.28;5121065;29;19919;-74
2023/06/16 03:32:39;;;;;;;;;;;;;;;13.56;58.33;101651.22;5120993;29;19990;-73
2023/06/16 03:35:12;;;;;;;;;;;;;;;13.55;58.37;101649.47;5120829;29;19923;-73
2023/06/16 03:37:43;;;;;;;;;;;;;;;13.52;58.83;101644.25;5120768;29;19915;-72
2023/06/16 03:40:17;;;;;;;;;;;;;;;13.50;58.43;101653.00;5120463;29;20355;-71
2023/06/16 03:42:48;;;;;;;;;;;;;;;13.48;58.59;101659.16;5121029;29;20332;-72
2023/06/16 03:45:19;;;;;;;;;;;;;;;13.48;58.63;101653.91;5118981;29;19926;-72
2023/06/16 03:47:50;;;;;;;;;;;;;;;13.50;58.71;101655.63;5120106;29;19919;-72
2023/06/16 03:50:22;;;;;;;;;;;;;;;13.50;58.65;101652.13;5120442;29;19919;-72
2023/06/16 03:52:53;;;;;;;;;;;;;;;13.49;59.01;101661.75;5120153;29;19915;-73
2023/06/16 03:55:24;;;;;;;;;;;;;;;13.50;58.72;101655.63;5119275;29;19922;-72
2023/06/16 03:57:56;;;;;;;;;;;;;;;13.50;58.90;101657.38;5120118;29;20018;-73
2023/06/16 04:00:28;;;;;;;;;;;;;;;13.48;58.97;101657.38;5120271;29;19919;-73
2023/06/16 04:02:59;;;;;;;;;;;;;;;13.48;59.05;101659.16;5120388;29;19920;-72
2023/06/16 04:05:31;;;;;;;;;;;;;;;13.49;59.25;101666.09;5121073;29;19919;-73
2023/06/16 04:08:02;;;;;;;;;;;;;;;13.52;59.36;101659.97;5122708;29;19919;-73
2023/06/16 04:10:33;;;;;;;;;;;;;;;13.54;59.31;101664.34;5124044;29;20275;-73
2023/06/16 04:13:05;;;;;;;;;;;;;;;13.55;59.12;101659.94;5124191;29;19915;-73
2023/06/16 04:15:36;;;;;;;;;;;;;;;13.57;59.56;101671.28;5123317;29;19977;-73
2023/06/16 04:18:07;;;;;;;;;;;;;;;13.56;60.19;101667.78;5122218;29;19926;-73
2023/06/16 04:20:38;;;;;;;;;;;;;;;13.58;59.59;101676.50;5123579;29;19922;-73
2023/06/16 04:23:10;;;;;;;;;;;;;;;13.63;59.40;101673.81;5121949;29;19919;-73
2023/06/16 04:25:41;;;;;;;;;;;;;;;13.65;59.44;101672.03;5123535;29;19919;-73
2023/06/16 04:28:15;;;;;;;;;;;;;;;13.67;59.55;101678.16;5123444;29;19915;-73
2023/06/16 04:30:47;;;;;;;;;;;;;;;13.70;60.02;101672.00;5123679;29;19923;-73
2023/06/16 04:33:22;;;;;;;;;;;;;;;13.74;59.81;101677.19;5123415;29;20070;-73
2023/06/16 04:35:55;;;;;;;;;;;;;;;13.79;59.70;101669.28;5123344;29;19919;-73
2023/06/16 04:38:27;;;;;;;;;;;;;;;13.83;59.71;101669.22;5123222;29;20259;-73
2023/06/16 04:40:58;;;;;;;;;;;;;;;13.86;59.58;101673.53;5122971;29;19915;-73
2023/06/16 04:43:29;;;;;;;;;;;;;;;13.91;60.01;101679.63;5123672;29;19963;-73
2023/06/16 04:46:00;;;;;;;;;;;;;;;13.94;60.33;101676.06;5123379;29;19935;-72
2023/06/16 04:48:32;;;;;;;;;;;;;;;13.97;61.21;101682.13;5123284;29;19941;-73
2023/06/16 04:51:04;;;;;;;;;;;;;;;14.00;60.59;101682.09;5123643;29;20063;-73
2023/06/16 04:53:36;;;;;;;;;;;;;;;14.08;61.17;101679.38;5122789;29;20370;-73
2023/06/16 04:56:07;;;;;;;;;;;;;;;14.14;61.12;101676.69;5123031;29;20002;-73
2023/06/16 04:58:39;;;;;;;;;;;;;;;14.21;60.97;101680.09;5121551;29;19955;-73
2023/06/16 05:01:11;;;;;;;;;;;;;;;14.26;62.95;101686.13;5122631;29;19956;-73
2023/06/16 05:03:42;;;;;;;;;;;;;;;14.33;62.06;101682.56;5122829;29;19919;-73
2023/06/16 05:06:13;;;;;;;;;;;;;;;14.41;61.47;101685.94;5122416;29;20050;-73
2023/06/16 05:08:45;;;;;;;;;;;;;;;14.47;60.83;101692.84;5122354;29;19923;-73
2023/06/16 05:11:16;;;;;;;;;;;;;;;14.54;60.53;101686.63;5123064;29;19923;-73
2023/06/16 05:13:47;;;;;;;;;;;;;;;14.62;61.16;101693.53;5121387;29;20336;-73
2023/06/16 05:16:18;;;;;;;;;;;;;;;14.69;60.95;101690.78;5122093;29;19945;-73
2023/06/16 05:18:50;;;;;;;;;;;;;;;14.75;62.68;101684.59;5122358;29;19919;-73
2023/06/16 05:21:25;;;;;;;;;;;;;;;14.82;62.24;101691.47;5121244;29;19983;-73
2023/06/16 05:23:57;;;;;;;;;;;;;;;14.89;62.72;101693.13;5122393;29;20272;-73
2023/06/16 05:26:29;;;;;;;;;;;;;;;14.97;63.82;101694.75;5120977;29;19921;-73
2023/06/16 05:29:00;;;;;;;;;;;;;;;15.01;62.37;101691.19;5123088;29;19915;-73
2023/06/16 05:31:31;;;;;;;;;;;;;;;15.06;63.29;101691.97;5122290;29;19918;-73
2023/06/16 05:34:02;;;;;;;;;;;;;;;15.12;63.34;101699.75;5122206;29;19915;-73
2023/06/16 05:36:35;;;;;;;;;;;;;;;15.19;64.14;101697.88;5122821;29;19915;-73
2023/06/16 05:39:07;;;;;;;;;;;;;;;15.26;64.17;101697.75;5121224;29;20352;-73
2023/06/16 05:41:38;;;;;;;;;;;;;;;15.36;63.78;101695.81;5121877;29;19922;-73
2023/06/16 05:44:09;;;;;;;;;;;;;;;15.48;64.28;101705.22;5121663;29;19919;-73
2023/06/16 05:46:41;;;;;;;;;;;;;;;15.57;63.80;101702.44;5121605;29;20362;-72
2023/06/16 05:49:12;;;;;;;;;;;;;;;15.67;64.15;101703.13;5121826;29;20263;-73
2023/06/16 05:51:43;;;;;;;;;;;;;;;15.76;63.30;101702.06;5122342;29;19970;-73
2023/06/16 05:54:15;;;;;;;;;;;;;;;15.85;62.23;101705.41;5122429;29;19919;-73
2023/06/16 05:56:46;;;;;;;;;;;;;;;15.97;61.76;101698.16;5121519;29;19919;-73
2023/06/16 05:59:17;;;;;;;;;;;;;;;16.09;62.24;101702.31;5120419;29;19966;-72
2023/06/16 06:01:49;;;;;;;;;;;;;;;16.19;62.12;101709.97;5122000;29;19934;-73
2023/06/16 06:04:25;;;;;;;;;;;;;;;16.28;61.37;101708.91;5120359;29;20224;-72
2023/06/16 06:06:57;;;;;;;;;;;;;;;16.38;61.12;101712.22;5121689;29;19915;-72
2023/06/16 06:09:29;;;;;;;;;;;;;;;16.48;61.69;101712.88;5121820;29;19926;-72
2023/06/16 06:12:00;;;;;;;;;;;;;;;16.56;61.23;101714.41;5122141;29;20271;-73
2023/06/16 06:14:31;;;;;;;;;;;;;;;16.65;60.86;101715.97;5121346;29;20069;-72
2023/06/16 06:17:03;;;;;;;;;;;;;;;16.76;60.38;101721.00;5121484;29;20006;-72
2023/06/16 06:19:34;;;;;;;;;;;;;;;16.87;60.28;101711.13;5122048;29;19930;-73
2023/06/16 06:22:06;;;;;;;;;;;;;;;16.97;59.79;101721.41;5121294;29;20298;-73
2023/06/16 06:24:37;;;;;;;;;;;;;;;17.05;59.02;101719.44;5122003;29;20215;-73
2023/06/16 06:27:10;;;;;;;;;;;;;;;17.17;58.16;101723.56;5120764;29;19922;-72
2023/06/16 06:29:41;;;;;;;;;;;;;;;17.28;58.39;101716.25;5120686;29;19919;-72
2023/06/16 06:32:13;;;;;;;;;;;;;;;17.43;57.94;101720.22;5120994;29;19935;-72
2023/06/16 06:34:44;;;;;;;;;;;;;;;17.58;58.13;101722.47;5121159;29;19926;-72
2023/06/16 06:37:18;;;;;;;;;;;;;;;17.68;58.29;101726.56;5121053;29;19919;-72
2023/06/16 06:39:50;;;;;;;;;;;;;;;17.81;57.41;101721.81;5121053;29;20005;-72
2023/06/16 06:42:21;;;;;;;;;;;;;;;17.95;57.01;101728.50;5121402;29;20047;-72
2023/06/16 06:44:53;;;;;;;;;;;;;;;18.10;54.72;101736.00;5120088;29;19958;-73
2023/06/16 06:47:25;;;;;;;;;;;;;;;18.22;54.32;101735.66;5120890;29;19919;-73
2023/06/16 06:49:56;;;;;;;;;;;;;;;18.33;53.51;101735.28;5120990;29;19923;-72
2023/06/16 06:52:27;;;;;;;;;;;;;;;18.51;50.64;101727.72;5121270;29;20018;-74
2023/06/16 06:54:58;;;;;;;;;;;;;;;18.65;50.78;101730.81;5119859;29;19919;-73
2023/06/16 06:57:30;;;;;;;;;;;;;;;18.73;49.25;101731.44;5119652;29;19926;-74
2023/06/16 07:00:01;;;;;;;;;;;;;;;18.88;50.06;101737.16;5120389;29;19919;-73
2023/06/16 07:02:32;;;;;;;;;;;;;;;19.00;50.18;101727.97;5119394;29;19923;-73
2023/06/16 07:05:03;;;;;;;;;;;;;;;19.11;48.58;101734.63;5120610;29;20409;-73
2023/06/16 07:07:35;;;;;;;;;;;;;;;19.26;48.32;101735.91;5121690;29;19947;-73
2023/06/16 07:10:06;;;;;;;;;;;;;;;19.39;47.41;101735.47;5121138;29;20001;-73
2023/06/16 07:12:38;;;;;;;;;;;;;;;19.52;46.34;101742.06;5120765;29;20343;-72
2023/06/16 07:15:09;;;;;;;;;;;;;;;19.67;47.17;101741.53;5120782;29;20420;-73
2023/06/16 07:17:40;;;;;;;;;;;;;;;19.80;46.85;101736.69;5118922;29;19929;-73
2023/06/16 07:20:13;;;;;;;;;;;;;;;19.90;45.66;101738.97;5120702;29;19945;-73
2023/06/16 07:22:45;;;;;;;;;;;;;;;20.02;44.01;101743.84;5120867;29;20402;-73
2023/06/16 07:25:16;;;;;;;;;;;;;;;20.11;44.09;101735.56;5121290;29;19923;-74
2023/06/16 07:27:47;;;;;;;;;;;;;;;20.18;44.62;101741.47;5120379;29;20021;-73
2023/06/16 07:30:19;;;;;;;;;;;;;;;20.27;44.97;101746.44;5120718;29;20386;-73
2023/06/16 07:32:50;;;;;;;;;;;;;;;20.40;43.22;101741.53;5120647;29;20021;-73
2023/06/16 07:35:21;;;;;;;;;;;;;;;20.54;42.67;101743.63;5120842;29;19938;-74
2023/06/16 07:37:53;;;;;;;;;;;;;;;20.67;43.34;101746.66;5120948;29;19919;-74
2023/06/16 07:40:24;;;;;;;;;;;;;;;20.81;42.43;101746.13;5121812;29;19919;-73
2023/06/16 07:42:56;;;;;;;;;;;;;;;20.94;43.35;101750.00;5124321;29;20344;-73
2023/06/16 07:45:31;;;;;;;;;;;;;;;21.09;42.87;101743.19;5123620;29;20363;-73
2023/06/16 07:48:03;;;;;;;;;;;;;;;21.21;42.78;101742.69;5124150;29;19954;-73
2023/06/16 07:50:34;;;;;;;;;;;;;;;21.29;41.00;101750.31;5124151;29;20354;-73
2023/06/16 07:53:06;;;;;;;;;;;;;;;21.35;41.77;101742.09;5124229;29;19958;-73
2023/06/16 07:55:38;;;;;;;;;;;;;;;21.44;39.85;101741.69;5122746;29;20017;-73
2023/06/16 07:58:09;;;;;;;;;;;;;;;21.51;40.53;101741.47;5124005;29;20363;-73
2023/06/16 08:00:40;;;;;;;;;;;;;;;21.59;40.82;101739.31;5122496;29;19919;-74
2023/06/16 08:03:11;;;;;;;;;;;;;;;21.73;41.16;101736.94;5123666;29;20037;-73
2023/06/16 08:05:43;;;;;;;;;;;;;;;21.85;39.90;101743.50;5123787;29;20279;-74
2023/06/16 08:08:14;;;;;;;;;;;;;;;21.97;39.80;101729.66;5123547;29;19919;-74
2023/06/16 08:10:45;;;;;;;;;;;;;;;22.08;39.30;101736.28;5123799;29;20035;-73
2023/06/16 08:13:16;;;;;;;;;;;;;;;22.16;37.64;101734.13;5124044;29;20358;-73
2023/06/16 08:15:48;;;;;;;;;;;;;;;22.24;37.98;101729.31;5123977;29;19919;-73
2023/06/16 08:18:19;;;;;;;;;;;;;;;22.35;37.34;101740.31;5123819;29;19919;-74
2023/06/16 08:20:51;;;;;;;;;;;;;;;22.47;37.39;101738.03;5123487;29;19938;-74
2023/06/16 08:23:22;;;;;;;;;;;;;;;22.55;32.87;101734.06;5123919;29;19926;-73
2023/06/16 08:25:54;;;;;;;;;;;;;;;22.61;35.54;101730.25;5123625;29;19919;-74
2023/06/16 08:28:26;;;;;;;;;;;;;;;22.69;35.67;101736.06;5123473;29;19915;-74
2023/06/16 08:30:57;;;;;;;;;;;;;;;22.78;35.61;101729.41;5123749;29;19919;-74
2023/06/16 08:33:29;;;;;;;;;;;;;;;22.87;35.31;101733.44;5123456;29;20018;-74
2023/06/16 08:36:01;;;;;;;;;;;;;;;23.01;35.14;101728.28;5123247;29;19925;-74
2023/06/16 08:38:32;;;;;;;;;;;;;;;23.16;35.47;101724.00;5122527;29;19919;-74
2023/06/16 08:41:07;;;;;;;;;;;;;;;23.26;35.87;101724.41;5123600;29;19921;-73
2023/06/16 08:43:41;;;;;;;;;;;;;;;23.41;33.58;101725.41;5123048;29;19915;-74
2023/06/16 08:46:13;;;;;;;;;;;;;;;23.53;33.48;101726.59;5123989;29;20010;-73
2023/06/16 08:48:45;;;;;;;;;;;;;;;23.54;31.90;101728.28;5121924;29;19919;-73
2023/06/16 08:51:21;;;;;;;;;;;;;;;23.59;33.21;101727.13;5122155;29;20264;-74
2023/06/16 08:54:00;;;;;;;;;;;;;;;23.75;33.57;101728.97;5123124;29;20001;-74
2023/06/16 08:56:32;;;;;;;;;;;;;;;23.90;31.07;101725.50;5123251;29;20351;-74
2023/06/16 08:59:04;;;;;;;;;;;;;;;23.97;30.46;101731.34;5122808;29;20274;-74
2023/06/16 09:01:39;;;;;;;;;;;;;;;24.05;32.33;101726.47;5122910;29;19915;-74
2023/06/16 09:04:13;;;;;;;;;;;;;;;24.15;31.96;101725.03;5122667;29;20220;-74
2023/06/16 09:06:45;;;;;;;;;;;;;;;24.09;30.90;101733.34;5123135;29;19919;-74
2023/06/16 09:09:17;;;;;;;;;;;;;;;24.17;32.64;101722.28;5122158;29;20278;-73
2023/06/16 09:12:04;;;;;;;;;;;;;;;24.32;31.34;101725.88;5122463;29;19919;-74
2023/06/16 09:14:39;;;;;;;;;;;;;;;24.38;29.99;101725.56;5122492;29;20013;-74
2023/06/16 09:17:12;;;;;;;;;;;;;;;24.51;31.93;101726.56;5120994;29;19930;-74
2023/06/16 09:19:47;;;;;;;;;;;;;;;24.80;31.14;101736.56;5122590;29;20406;-74
2023/06/16 09:22:23;;;;;;;;;;;;;;;24.99;31.28;101726.53;5122440;29;20252;-73
2023/06/16 09:24:55;;;;;;;;;;;;;;;25.05;31.18;101728.84;5122319;29;19966;-74
2023/06/16 09:27:41;;;;;;;;;;;;;;;25.09;31.89;101721.50;5122123;29;19918;-74
2023/06/16 09:30:16;;;;;;;;;;;;;;;25.30;30.74;101722.06;5121035;29;19915;-73
2023/06/16 09:32:49;;;;;;;;;;;;;;;25.41;29.90;101729.44;5121092;29;19915;-74
2023/06/16 09:35:22;;;;;;;;;;;;;;;25.37;29.74;101726.06;5121898;29;20384;-74
2023/06/16 09:38:03;;;;;;;;;;;;;;;25.44;28.41;101730.09;5122087;29;20014;-74
2023/06/16 09:40:35;;;;;;;;;;;;;;;25.51;29.03;101713.72;5122783;29;19919;-73
2023/06/16 09:43:08;;;;;;;;;;;;;;;25.66;28.70;101716.31;5120771;29;19919;-73
2023/06/16 09:45:40;;;;;;;;;;;;;;;25.84;30.03;101724.09;5121659;29;19915;-73
2023/06/16 09:48:11;;;;;;;;;;;;;;;26.05;30.12;101715.72;5121938;29;19998;-74
2023/06/16 09:50:43;;;;;;;;;;;;;;;26.23;28.03;101716.34;5122390;29;19923;-73
2023/06/16 09:53:18;;;;;;;;;;;;;;;26.32;28.77;101719.31;5121608;29;19919;-73
2023/06/16 09:55:51;;;;;;;;;;;;;;;26.41;28.97;101707.16;5122646;29;19982;-73
2023/06/16 09:58:22;;;;;;;;;;;;;;;26.48;28.31;101710.28;5121627;29;19966;-74
2023/06/16 10:00:53;;;;;;;;;;;;;;;26.61;27.10;101707.66;5121748;29;19947;-73
2023/06/16 10:03:26;;;;;;;;;;;;;;;26.32;25.88;101705.94;5122026;29;20007;-74
2023/06/16 10:06:03;;;;;;;;;;;;;;;26.52;26.32;101714.47;5120316;29;20068;-75
2023/06/16 10:08:34;;;;;;;;;;;;;;;27.09;27.24;101708.03;5120237;29;19915;-74
2023/06/16 10:11:07;;;;;;;;;;;;;;;28.04;26.46;101705.06;5121554;29;19978;-74
2023/06/16 10:13:40;;;;;;;;;;;;;;;29.15;22.47;101707.56;5120614;29;19915;-74
2023/06/16 10:16:12;;;;;;;;;;;;;;;29.63;22.01;101702.88;5121400;29;19919;-75
2023/06/16 10:18:44;;;;;;;;;;;;;;;30.77;22.03;101698.16;5121123;29;19919;-75
2023/06/16 10:21:16;;;;;;;;;;;;;;;31.94;22.24;101706.94;5122024;29;20001;-75
2023/06/16 10:23:47;;;;;;;;;;;;;;;33.03;20.62;101708.78;5121100;29;19919;-74
2023/06/16 10:26:19;;;;;;;;;;;;;;;33.74;20.25;101693.94;5121868;29;19921;-75
2023/06/16 10:28:51;;;;;;;;;;;;;;;34.50;21.03;101693.63;5121532;29;19915;-75
2023/06/16 10:31:27;;;;;;;;;;;;;;;35.37;18.39;101692.94;5119975;29;20306;-75
2023/06/16 10:33:59;;;;;;;;;;;;;;;35.49;15.65;101688.13;5121242;29;19915;-76
2023/06/16 10:36:33;;;;;;;;;;;;;;;36.19;17.88;101697.84;5121121;29;19922;-76
2023/06/16 10:39:09;;;;;;;;;;;;;;;36.06;15.96;101693.75;5121147;29;19919;-75
2023/06/16 10:41:51;;;;;;;;;;;;;;;36.06;18.38;101690.19;5121057;29;19915;-75
2023/06/16 10:44:29;;;;;;;;;;;;;;;36.55;15.09;101687.59;5121087;29;20351;-75
2023/06/16 10:47:09;;;;;;;;;;;;;;;35.88;15.22;101680.31;5121040;29;20353;-73
2023/06/16 10:49:46;;;;;;;;;;;;;;;36.77;16.48;101696.09;5121166;29;19961;-75
2023/06/16 10:52:33;;;;;;;;;;;;;;;37.07;15.09;101693.69;5120498;29;20350;-73
2023/06/16 10:55:22;;;;;;;;;;;;;;;36.33;15.02;101679.06;5121460;29;20002;-74
2023/06/16 10:57:57;;;;;;;;;;;;;;;36.30;15.93;101686.72;5121517;29;19915;-74
2023/06/16 11:00:28;;;;;;;;;;;;;;;36.91;15.62;101684.53;5121266;29;19919;-74
2023/06/16 11:03:00;;;;;;;;;;;;;;;36.33;14.15;101668.22;5120903;29;19975;-74
2023/06/16 11:05:38;;;;;;;;;;;;;;;35.55;14.95;101674.75;5120607;29;19919;-74
2023/06/16 11:08:09;;;;;;;;;;;;;;;35.34;16.79;101671.56;5120864;29;19994;-74
2023/06/16 11:10:49;;;;;;;;;;;;;;;36.15;15.93;101665.63;5119760;29;19923;-75
2023/06/16 11:13:29;;;;;;;;;;;;;;;37.08;15.41;101669.06;5120859;29;19915;-74
2023/06/16 11:16:01;;;;;;;;;;;;;;;37.35;16.63;101664.25;5123465;29;19967;-74
2023/06/16 11:18:33;;;;;;;;;;;;;;;37.37;14.18;101667.63;5124370;29;19914;-74
2023/06/16 11:21:10;;;;;;;;;;;;;;;37.75;15.56;101667.84;5124789;29;19915;-75
2023/06/16 11:23:43;;;;;;;;;;;;;;;38.84;14.83;101659.59;5125036;29;19954;-74
2023/06/16 11:26:17;;;;;;;;;;;;;;;39.88;14.87;101665.03;5124718;29;20287;-75
2023/06/16 11:28:48;;;;;;;;;;;;;;;40.68;14.60;101667.69;5125338;29;20419;-75
2023/06/16 11:31:20;;;;;;;;;;;;;;;39.97;12.57;101660.31;5124399;29;19919;-75
2023/06/16 11:33:55;;;;;;;;;;;;;;;39.89;14.44;101666.69;5124592;29;19915;-74
2023/06/16 11:36:26;;;;;;;;;;;;;;;40.39;12.76;101672.25;5124263;29;19979;-75
2023/06/16 11:38:58;;;;;;;;;;;;;;;40.60;12.32;101665.97;5124421;29;20303;-75
2023/06/16 11:41:32;;;;;;;;;;;;;;;39.76;13.70;101666.56;5122785;29;20295;-75
2023/06/16 11:44:03;;;;;;;;;;;;;;;39.65;12.13;101667.06;5123306;29;19919;-75
2023/06/16 11:46:35;;;;;;;;;;;;;;;39.35;13.59;101661.59;5124739;29;20017;-75
2023/06/16 11:49:07;;;;;;;;;;;;;;;39.98;13.99;101652.94;5124943;29;19973;-75
2023/06/16 11:51:38;;;;;;;;;;;;;;;39.94;13.12;101661.50;5124205;29;19915;-75
2023/06/16 11:54:09;;;;;;;;;;;;;;;39.57;13.79;101657.91;5123903;29;19915;-75
2023/06/16 11:56:40;;;;;;;;;;;;;;;40.85;12.13;101648.28;5124286;29;20340;-75
2023/06/16 11:59:13;;;;;;;;;;;;;;;41.40;13.27;101651.16;5124036;29;20017;-75
2023/06/16 12:01:44;;;;;;;;;;;;;;;41.20;11.16;101654.59;5124014;29;19915;-75
2023/06/16 12:04:16;;;;;;;;;;;;;;;40.16;11.91;101652.53;5124090;29;20343;-75
2023/06/16 12:06:48;;;;;;;;;;;;;;;39.28;12.45;101633.41;5123879;29;19966;-75
2023/06/16 12:09:20;;;;;;;;;;;;;;;39.56;14.36;101645.34;5124490;29;20359;-76
2023/06/16 12:11:51;;;;;;;;;;;;;;;40.16;13.61;101639.72;5123919;29;19915;-75
2023/06/16 12:14:24;;;;;;;;;;;;;;;41.20;12.88;101632.72;5123785;29;19926;-75
2023/06/16 12:16:56;;;;;;;;;;;;;;;42.11;11.21;101625.28;5121984;29;19919;-75
2023/06/16 12:19:27;;;;;;;;;;;;;;;41.78;11.12;101631.53;5124132;29;20274;-75
2023/06/16 12:22:00;;;;;;;;;;;;;;;41.94;12.37;101635.78;5123727;29;19926;-75
2023/06/16 12:24:31;;;;;;;;;;;;;;;41.68;11.96;101632.72;5123216;29;19915;-75
2023/06/16 12:27:03;;;;;;;;;;;;;;;41.82;12.79;101624.59;5122781;29;19942;-75
2023/06/16 12:29:35;;;;;;;;;;;;;;;41.81;10.81;101628.38;5123329;29;19919;-76
2023/06/16 12:32:06;;;;;;;;;;;;;;;40.39;11.84;101627.72;5123261;29;20275;-75
2023/06/16 12:34:38;;;;;;;;;;;;;;;39.40;12.85;101620.97;5123787;29;19919;-75
2023/06/16 12:37:12;;;;;;;;;;;;;;;39.92;13.65;101616.34;5123687;29;19975;-75
2023/06/16 12:39:54;;;;;;;;;;;;;;;40.87;13.02;101625.19;5122007;29;20010;-75
2023/06/16 12:42:30;;;;;;;;;;;;;;;41.16;12.30;101631.47;5122874;29;19919;-75
2023/06/16 12:45:02;;;;;;;;;;;;;;;40.19;12.27;101620.22;5123847;29;19922;-75
2023/06/16 12:47:34;;;;;;;;;;;;;;;40.54;12.49;101620.28;5123018;29;19915;-74
2023/06/16 12:50:06;;;;;;;;;;;;;;;41.19;12.63;101615.47;5121934;29;19990;-75
2023/06/16 12:52:37;;;;;;;;;;;;;;;42.52;12.27;101605.06;5123335;29;19926;-75
2023/06/16 12:55:08;;;;;;;;;;;;;;;43.09;10.75;101611.72;5122796;29;20005;-76
2023/06/16 12:57:40;;;;;;;;;;;;;;;41.13;10.70;101609.97;5122732;29;19915;-75
2023/06/16 13:00:13;;;;;;;;;;;;;;;40.45;11.77;101605.13;5122962;29;19921;-75
2023/06/16 13:02:46;;;;;;;;;;;;;;;40.54;13.18;101598.44;5123558;29;19926;-76